Robertsport/Cape Mount Airport

Jump to: basic info | weather | comments

Related pages: nearby airports | nearby navaids | notams | map

Basic information (top)

Codes: GLCM
Location: lon 6.800000, lat -11.367000, elev 10 ft / 3 m msl
Status: small_airport

Weather (top)

Current conditions for Roberts International Airport 69nm (128km) ESE (rec'd 2015/01/28 11:30Z):

GLRB 281130Z 23005KT CAVOK 30/22 Q1012 NOSIG

Airport forecast for Roberts International Airport 69nm (128km) ESE (rec'd 2015/01/28 12:51Z):

TAF GLRB 281000Z 2812/2918 27012KT 9999 SCT016 
      BECMG 2813/2815 24010KT 9999 BKN018 
     FM281600 23008KT 9000 BKN016 
      TEMPO 2821/2902 00000KT 9999 SCT015

Latest comments (top)

No comments yet for Robertsport/Cape Mount Airport

More... (top)

See also NOTAMs and nearby airports and navaids, or visit the Robertsport/Cape Mount Airport page at the main OurAirports website..